createdAt,value
2023-04-20T00:01:56.916Z,18.07
2023-04-20T00:04:25.114Z,19.20
2023-04-20T00:06:54.016Z,19.57
2023-04-20T00:09:22.374Z,19.57
2023-04-20T00:11:50.422Z,18.87
2023-04-20T00:14:19.021Z,15.40
2023-04-20T00:16:49.390Z,16.63
2023-04-20T00:19:17.811Z,18.43
2023-04-20T00:21:46.352Z,16.93
2023-04-20T00:24:14.308Z,16.30
2023-04-20T00:26:42.271Z,16.77
2023-04-20T00:29:10.329Z,16.50
2023-04-20T00:31:38.285Z,17.20
2023-04-20T00:34:07.611Z,20.07
2023-04-20T00:36:35.592Z,16.63
2023-04-20T00:39:05.148Z,16.20
2023-04-20T00:41:33.148Z,19.57
2023-04-20T00:44:01.528Z,22.80
2023-04-20T00:46:29.668Z,19.70
2023-04-20T00:48:57.923Z,19.00
2023-04-20T00:51:28.797Z,27.33
2023-04-20T00:53:57.443Z,16.23
2023-04-20T00:56:25.449Z,17.70
2023-04-20T00:58:53.421Z,19.37
2023-04-20T01:01:21.467Z,20.40
2023-04-20T01:03:49.634Z,18.60
2023-04-20T01:06:18.514Z,21.47
2023-04-20T01:08:49.404Z,18.70
2023-04-20T01:11:18.067Z,23.27
2023-04-20T01:13:46.220Z,22.53
2023-04-20T01:16:14.685Z,19.20
2023-04-20T01:18:44.977Z,19.13
2023-04-20T01:21:13.357Z,19.47
2023-04-20T01:23:42.667Z,17.50
2023-04-20T01:26:12.257Z,26.17
2023-04-20T01:28:40.444Z,20.83
2023-04-20T01:31:09.579Z,19.53
2023-04-20T01:33:37.928Z,16.60
2023-04-20T01:36:07.555Z,23.30
2023-04-20T01:38:36.375Z,22.87
2023-04-20T01:41:07.770Z,15.87
2023-04-20T01:43:38.046Z,16.83
2023-04-20T01:46:06.441Z,18.00
2023-04-20T01:48:34.888Z,21.20
2023-04-20T01:51:03.009Z,21.00
2023-04-20T01:53:30.939Z,18.90
2023-04-20T01:56:00.474Z,17.37
2023-04-20T01:58:29.891Z,16.73
2023-04-20T02:00:57.857Z,19.20
2023-04-20T02:03:26.077Z,21.80
2023-04-20T02:05:54.158Z,20.70
2023-04-20T02:08:22.139Z,20.30
2023-04-20T02:10:50.136Z,21.40
2023-04-20T02:13:18.277Z,20.80
2023-04-20T02:15:47.665Z,23.10
2023-04-20T02:18:16.570Z,18.50
2023-04-20T02:20:45.567Z,19.57
2023-04-20T02:23:13.778Z,23.47
2023-04-20T02:25:41.752Z,27.20
2023-04-20T02:28:10.087Z,27.03
2023-04-20T02:30:38.315Z,25.63
2023-04-20T02:33:07.897Z,28.50
2023-04-20T02:35:36.105Z,22.60
2023-04-20T02:38:04.407Z,25.30
2023-04-20T02:40:32.728Z,35.57
2023-04-20T02:43:00.751Z,28.10
2023-04-20T02:45:28.761Z,24.40
2023-04-20T02:47:57.248Z,24.73
2023-04-20T02:50:26.632Z,24.70
2023-04-20T02:52:54.632Z,23.67
2023-04-20T02:55:22.709Z,27.63
2023-04-20T02:57:50.948Z,28.53
2023-04-20T03:00:19.626Z,24.30
2023-04-20T03:02:47.899Z,26.43
2023-04-20T03:05:15.959Z,23.23
2023-04-20T03:07:45.468Z,25.50
2023-04-20T03:10:14.009Z,25.23
2023-04-20T03:12:41.954Z,24.00
2023-04-20T03:15:11.300Z,24.53
2023-04-20T03:17:39.327Z,27.23
2023-04-20T03:20:09.788Z,26.37
2023-04-20T03:22:37.824Z,32.83
2023-04-20T03:25:08.722Z,32.40
2023-04-20T03:27:36.683Z,33.07
2023-04-20T03:30:05.016Z,29.73
2023-04-20T03:32:33.009Z,31.50
2023-04-20T03:35:01.006Z,28.93
2023-04-20T03:37:28.963Z,28.07
2023-04-20T03:39:56.898Z,27.63
2023-04-20T03:42:26.291Z,31.30
2023-04-20T03:44:54.381Z,27.23
2023-04-20T03:47:22.546Z,29.67
2023-04-20T03:49:50.485Z,29.57
2023-04-20T03:52:18.540Z,29.63
2023-04-20T03:54:46.666Z,34.33
2023-04-20T03:57:14.630Z,27.20
2023-04-20T03:59:44.089Z,27.13
2023-04-20T04:02:13.245Z,27.40
2023-04-20T04:04:42.548Z,33.70
2023-04-20T04:07:10.639Z,31.13
2023-04-20T04:09:38.644Z,25.30
2023-04-20T04:12:07.773Z,26.93
2023-04-20T04:14:36.310Z,28.43
2023-04-20T04:17:07.938Z,28.60
2023-04-20T04:19:36.279Z,25.13
2023-04-20T04:22:04.297Z,26.20
2023-04-20T04:24:33.497Z,26.23
2023-04-20T04:27:05.221Z,28.80
2023-04-20T04:29:35.717Z,25.67
2023-04-20T04:32:05.610Z,26.90
2023-04-20T04:34:34.356Z,27.60
2023-04-20T04:37:02.770Z,27.80
2023-04-20T04:39:31.186Z,32.80
2023-04-20T04:41:59.129Z,28.03
2023-04-20T04:44:28.696Z,24.63
2023-04-20T04:46:57.547Z,30.00
2023-04-20T04:49:29.377Z,24.53
2023-04-20T04:51:57.409Z,30.60
2023-04-20T04:54:25.445Z,34.17
2023-04-20T04:56:53.360Z,31.80
2023-04-20T04:59:21.364Z,27.77
2023-04-20T05:01:49.645Z,28.17
2023-04-20T05:04:17.744Z,32.17
2023-04-20T05:06:47.287Z,33.27
2023-04-20T05:09:16.136Z,30.87
2023-04-20T05:11:44.333Z,41.33
2023-04-20T05:14:12.358Z,30.73
2023-04-20T05:16:40.376Z,31.50
2023-04-20T05:19:08.450Z,31.73
2023-04-20T05:21:38.100Z,32.30
2023-04-20T05:24:07.733Z,35.03
2023-04-20T05:26:35.716Z,28.00
2023-04-20T05:29:03.804Z,35.60
2023-04-20T05:31:33.213Z,34.30
2023-04-20T05:34:01.875Z,30.57
2023-04-20T05:36:30.917Z,39.53
2023-04-20T05:38:58.891Z,35.10
2023-04-20T05:41:28.193Z,33.30
2023-04-20T05:43:56.894Z,36.90
2023-04-20T05:46:25.150Z,33.60
2023-04-20T05:48:53.204Z,33.97
2023-04-20T05:51:21.981Z,36.10
2023-04-20T05:53:49.984Z,33.20
2023-04-20T05:56:18.479Z,34.83
2023-04-20T05:58:48.208Z,32.40
2023-04-20T06:01:16.194Z,31.80
2023-04-20T06:03:44.315Z,31.40
2023-04-20T06:06:12.333Z,35.30
2023-04-20T06:08:40.268Z,30.40
2023-04-20T06:11:08.332Z,31.63
2023-04-20T06:13:36.423Z,41.23
2023-04-20T06:16:09.468Z,32.73
2023-04-20T06:18:38.127Z,32.70
2023-04-20T06:21:06.274Z,36.10
2023-04-20T06:23:34.454Z,37.53
2023-04-20T06:26:02.460Z,37.57
2023-04-20T06:28:30.541Z,35.97
2023-04-20T06:30:58.599Z,43.70
2023-04-20T06:33:27.910Z,36.90
2023-04-20T06:35:56.612Z,38.73
2023-04-20T06:38:25.384Z,43.43
2023-04-20T06:40:53.411Z,42.50
2023-04-20T06:43:21.395Z,38.20
2023-04-20T06:45:49.373Z,45.90
2023-04-20T06:48:30.774Z,48.40
2023-04-20T06:51:01.303Z,38.67
2023-04-20T06:53:29.300Z,49.60
2023-04-20T06:55:57.932Z,44.60
2023-04-20T06:58:25.948Z,45.70
2023-04-20T07:00:54.094Z,100.33
2023-04-20T07:03:22.231Z,56.30
2023-04-20T07:05:50.254Z,112.03
2023-04-20T07:08:20.112Z,87.27
2023-04-20T07:10:48.061Z,76.77
2023-04-20T07:13:16.140Z,98.40
2023-04-20T07:15:45.862Z,56.90
2023-04-20T07:18:13.920Z,57.83
2023-04-20T07:20:42.181Z,55.10
2023-04-20T07:23:10.374Z,49.37
2023-04-20T07:25:39.730Z,48.27
2023-04-20T07:28:07.716Z,49.97
2023-04-20T07:30:35.707Z,51.47
2023-04-20T07:33:03.869Z,47.33
2023-04-20T07:35:31.866Z,46.60
2023-04-20T07:37:59.811Z,48.60
2023-04-20T07:40:27.967Z,48.77
2023-04-20T07:42:57.234Z,52.23
2023-04-20T07:45:25.602Z,44.67
2023-04-20T07:47:55.137Z,46.37
2023-04-20T07:50:23.374Z,50.63
2023-04-20T07:52:51.369Z,47.97
2023-04-20T07:55:19.704Z,49.43
2023-04-20T07:57:47.811Z,47.43
2023-04-20T08:00:18.694Z,45.77
2023-04-20T08:02:46.746Z,57.17
2023-04-20T08:05:15.180Z,48.73
2023-04-20T08:07:43.356Z,51.20
2023-04-20T08:10:11.903Z,45.13
2023-04-20T08:12:40.680Z,50.30
2023-04-20T08:15:10.443Z,55.63
2023-04-20T08:17:39.894Z,52.00
2023-04-20T08:20:10.628Z,48.80
2023-04-20T08:22:39.425Z,56.87
2023-04-20T08:25:07.828Z,44.90
2023-04-20T08:27:35.874Z,53.77
2023-04-20T08:30:05.096Z,50.33
2023-04-20T08:32:33.410Z,58.20
2023-04-20T08:35:03.493Z,59.90
2023-04-20T08:37:32.881Z,52.33
2023-04-20T08:40:01.146Z,48.37
2023-04-20T08:42:29.167Z,54.03
2023-04-20T08:44:58.435Z,54.33
2023-04-20T08:47:29.111Z,48.63
2023-04-20T08:49:57.717Z,52.30
2023-04-20T08:52:27.168Z,57.77
2023-04-20T08:54:57.401Z,62.80
2023-04-20T08:57:26.380Z,52.73
2023-04-20T08:59:54.584Z,57.17
2023-04-20T09:02:23.398Z,53.27
2023-04-20T09:05:02.477Z,50.80
2023-04-20T09:07:32.415Z,48.40
2023-04-20T09:10:01.407Z,48.70
2023-04-20T09:12:29.602Z,46.10
2023-04-20T09:14:57.759Z,50.80
2023-04-20T09:17:36.045Z,59.87
2023-04-20T09:20:05.179Z,49.30
2023-04-20T09:22:36.211Z,56.17
2023-04-20T09:25:14.428Z,53.13
2023-04-20T09:27:42.374Z,53.57
2023-04-20T09:30:12.129Z,63.63
2023-04-20T09:32:40.132Z,50.83
2023-04-20T09:35:08.869Z,63.70
2023-04-20T09:37:48.614Z,56.07
2023-04-20T09:40:17.523Z,53.93
2023-04-20T09:42:46.328Z,47.67
2023-04-20T09:45:16.396Z,54.30
2023-04-20T09:47:45.130Z,54.00
2023-04-20T09:50:24.570Z,54.13
2023-04-20T09:52:56.831Z,45.33
2023-04-20T09:55:26.289Z,53.73
2023-04-20T09:57:55.377Z,53.10
2023-04-20T10:00:24.092Z,51.50
2023-04-20T10:02:52.508Z,54.07
2023-04-20T10:05:22.519Z,51.80
2023-04-20T10:08:01.759Z,47.03
2023-04-20T10:10:31.037Z,47.10
2023-04-20T10:13:01.828Z,52.87
2023-04-20T10:15:38.913Z,53.40
2023-04-20T10:18:20.763Z,55.37
2023-04-20T10:20:49.071Z,53.70
2023-04-20T10:23:20.017Z,55.27
2023-04-20T10:25:58.087Z,51.33
2023-04-20T10:28:26.256Z,50.20
2023-04-20T10:30:54.981Z,48.67
2023-04-20T10:33:23.220Z,49.07
2023-04-20T10:35:54.758Z,49.93
2023-04-20T10:38:31.617Z,49.73
2023-04-20T10:41:07.755Z,52.93
2023-04-20T10:43:38.898Z,51.70
2023-04-20T10:46:18.575Z,51.37
2023-04-20T10:48:54.159Z,48.13
2023-04-20T10:51:22.909Z,48.10
2023-04-20T10:54:05.150Z,53.67
2023-04-20T10:56:40.810Z,51.70
2023-04-20T10:59:09.479Z,49.43
2023-04-20T11:01:37.714Z,53.07
2023-04-20T11:04:07.304Z,52.90
2023-04-20T11:06:36.084Z,48.37
2023-04-20T11:09:05.586Z,52.60
2023-04-20T11:11:33.512Z,48.97
2023-04-20T11:14:08.864Z,47.73
2023-04-20T11:16:50.537Z,53.57
2023-04-20T11:19:25.801Z,43.30
2023-04-20T11:21:54.480Z,46.20
2023-04-20T11:24:25.410Z,43.50
2023-04-20T11:26:54.917Z,42.93
2023-04-20T11:29:31.157Z,42.33
2023-04-20T11:31:59.716Z,43.50
2023-04-20T11:34:27.976Z,36.43
2023-04-20T11:36:57.005Z,43.53
2023-04-20T11:39:27.313Z,42.00
2023-04-20T11:41:56.514Z,34.53
2023-04-20T11:44:25.841Z,38.40
2023-04-20T11:46:57.062Z,37.93
2023-04-20T11:49:25.973Z,34.83
2023-04-20T11:51:54.587Z,36.07
2023-04-20T11:54:23.813Z,36.33
2023-04-20T11:56:53.419Z,39.70
2023-04-20T11:59:21.922Z,32.70
2023-04-20T12:01:50.000Z,40.93
2023-04-20T12:04:18.362Z,36.50
2023-04-20T12:06:46.548Z,32.60
2023-04-20T12:09:14.875Z,33.00
2023-04-20T12:11:43.307Z,31.10
2023-04-20T12:14:12.820Z,31.40
2023-04-20T12:16:41.472Z,26.73
2023-04-20T12:19:09.534Z,31.00
2023-04-20T12:21:37.652Z,32.70
2023-04-20T12:24:06.116Z,27.07
2023-04-20T12:26:38.500Z,24.90
2023-04-20T12:29:09.775Z,33.03
2023-04-20T12:31:39.225Z,30.33
2023-04-20T12:34:07.501Z,32.90
2023-04-20T12:36:36.581Z,32.73
2023-04-20T12:39:05.155Z,32.33
2023-04-20T12:41:33.305Z,31.40
2023-04-20T12:44:04.336Z,32.43
2023-04-20T12:46:33.732Z,29.87
2023-04-20T12:49:03.600Z,27.80
2023-04-20T12:51:32.038Z,34.23
2023-04-20T12:54:00.131Z,27.83
2023-04-20T12:56:28.161Z,33.70
2023-04-20T12:58:56.073Z,32.40
2023-04-20T13:01:24.345Z,31.17
2023-04-20T13:03:52.880Z,30.70
2023-04-20T13:06:22.734Z,30.93
2023-04-20T13:08:51.029Z,28.27
2023-04-20T13:11:18.964Z,25.30
2023-04-20T13:13:47.054Z,29.50
2023-04-20T13:16:15.235Z,30.70
2023-04-20T13:18:43.270Z,32.17
2023-04-20T13:21:11.284Z,28.43
2023-04-20T13:23:40.768Z,31.53
2023-04-20T13:26:09.285Z,32.40
2023-04-20T13:28:37.646Z,30.93
2023-04-20T13:31:05.988Z,25.60
2023-04-20T13:33:34.251Z,27.03
2023-04-20T13:36:02.340Z,26.43
2023-04-20T13:38:30.330Z,26.20
2023-04-20T13:40:59.881Z,25.07
2023-04-20T13:43:27.832Z,31.43
2023-04-20T13:45:55.860Z,20.63
2023-04-20T13:48:23.891Z,24.43
2023-04-20T13:50:54.025Z,23.90
2023-04-20T13:53:22.621Z,23.47
2023-04-20T13:55:50.897Z,21.83
2023-04-20T13:58:20.344Z,23.60
2023-04-20T14:00:48.296Z,24.43
2023-04-20T14:03:18.712Z,24.63
2023-04-20T14:05:46.896Z,25.37
2023-04-20T14:08:14.933Z,22.90
2023-04-20T14:10:42.963Z,22.10
2023-04-20T14:13:10.956Z,24.60
2023-04-20T14:15:41.391Z,23.53
2023-04-20T14:18:09.455Z,24.50
2023-04-20T14:20:38.046Z,31.63
2023-04-20T14:23:09.307Z,22.07
2023-04-20T14:25:37.730Z,22.17
2023-04-20T14:28:06.193Z,20.20
2023-04-20T14:30:34.372Z,19.10
2023-04-20T14:33:04.180Z,20.40
2023-04-20T14:35:32.234Z,15.33
2023-04-20T14:38:00.293Z,19.07
2023-04-20T14:40:28.280Z,19.40
2023-04-20T14:42:57.012Z,20.97
2023-04-20T14:45:25.165Z,25.60
2023-04-20T14:47:54.737Z,29.43
2023-04-20T14:50:27.222Z,23.30
2023-04-20T14:52:56.261Z,26.70
2023-04-20T14:55:25.769Z,20.20
2023-04-20T14:57:56.024Z,27.17
2023-04-20T15:00:24.495Z,20.53
2023-04-20T15:02:56.134Z,20.63
2023-04-20T15:05:27.749Z,22.23
2023-04-20T15:07:55.992Z,19.83
2023-04-20T15:10:24.351Z,22.10
2023-04-20T15:12:52.578Z,18.70
2023-04-20T15:15:20.820Z,17.00
2023-04-20T15:17:48.835Z,23.60
2023-04-20T15:20:16.980Z,17.83
2023-04-20T15:22:46.366Z,19.70
2023-04-20T15:25:14.334Z,23.10
2023-04-20T15:27:42.315Z,19.63
2023-04-20T15:30:11.041Z,19.50
2023-04-20T15:32:40.105Z,18.43
2023-04-20T15:35:08.504Z,22.90
2023-04-20T15:37:36.481Z,18.90
2023-04-20T15:40:07.012Z,27.27
2023-04-20T15:42:35.032Z,21.10
2023-04-20T15:45:03.194Z,22.47
2023-04-20T15:47:31.229Z,20.40
2023-04-20T15:50:01.399Z,23.17
2023-04-20T15:52:30.333Z,18.63
2023-04-20T15:54:58.301Z,22.50
2023-04-20T15:57:27.615Z,22.33
2023-04-20T15:59:55.587Z,21.23
2023-04-20T16:02:24.010Z,24.03
2023-04-20T16:04:52.289Z,20.70
2023-04-20T16:07:21.087Z,20.77
2023-04-20T16:09:49.654Z,20.17
2023-04-20T16:12:17.631Z,20.70
2023-04-20T16:14:47.071Z,18.97
2023-04-20T16:17:15.507Z,22.10
2023-04-20T16:19:43.602Z,18.90
2023-04-20T16:22:12.243Z,34.70
2023-04-20T16:24:40.197Z,28.83
2023-04-20T16:27:08.155Z,23.23
2023-04-20T16:29:36.231Z,20.73
2023-04-20T16:32:05.723Z,25.33
2023-04-20T16:34:33.735Z,21.50
2023-04-20T16:37:01.735Z,19.53
2023-04-20T16:39:29.835Z,20.80
2023-04-20T16:41:58.443Z,20.10
2023-04-20T16:44:27.197Z,21.40
2023-04-20T16:46:56.201Z,18.50
2023-04-20T16:49:26.015Z,24.00
2023-04-20T16:51:54.116Z,24.63
2023-04-20T16:54:22.360Z,21.23
2023-04-20T16:56:51.163Z,25.83
2023-04-20T16:59:19.149Z,21.23
2023-04-20T17:01:47.143Z,18.63
2023-04-20T17:04:17.574Z,26.33
2023-04-20T17:06:47.588Z,25.60
2023-04-20T17:09:15.529Z,31.63
2023-04-20T17:11:43.523Z,32.10
2023-04-20T17:14:12.139Z,32.00
2023-04-20T17:16:40.334Z,33.17
2023-04-20T17:19:08.336Z,34.90
2023-04-20T17:21:36.581Z,35.13
2023-04-20T17:24:06.358Z,34.47
2023-04-20T17:26:34.502Z,36.90
2023-04-20T17:29:02.572Z,35.63
2023-04-20T17:31:31.223Z,39.30
2023-04-20T17:33:59.247Z,38.83
2023-04-20T17:36:28.011Z,33.10
2023-04-20T17:38:56.167Z,41.93
2023-04-20T17:41:25.539Z,41.43
2023-04-20T17:43:53.784Z,42.87
2023-04-20T17:46:21.761Z,41.30
2023-04-20T17:48:49.853Z,39.70
2023-04-20T17:51:17.968Z,45.97
2023-04-20T17:53:46.070Z,47.10
2023-04-20T17:56:14.197Z,63.03
2023-04-20T17:58:43.568Z,56.40
2023-04-20T18:01:11.657Z,59.03
2023-04-20T18:03:41.043Z,53.77
2023-04-20T18:06:09.290Z,54.50
2023-04-20T18:08:37.335Z,66.87
2023-04-20T18:11:06.454Z,62.47
2023-04-20T18:13:34.529Z,54.10
2023-04-20T18:16:07.151Z,41.33
2023-04-20T18:18:36.300Z,49.00
2023-04-20T18:21:05.086Z,48.83
2023-04-20T18:23:33.711Z,45.80
2023-04-20T18:26:01.663Z,44.97
2023-04-20T18:28:29.867Z,41.80
2023-04-20T18:30:59.031Z,46.37
2023-04-20T18:33:28.642Z,47.53
2023-04-20T18:35:56.632Z,41.60
2023-04-20T18:38:24.567Z,39.00
2023-04-20T18:40:52.657Z,39.50
2023-04-20T18:43:20.708Z,36.50
2023-04-20T18:45:48.691Z,40.60
2023-04-20T18:48:16.663Z,38.67
2023-04-20T18:50:47.420Z,36.43
2023-04-20T18:53:16.237Z,34.30
2023-04-20T18:55:44.164Z,33.77
2023-04-20T18:58:12.129Z,37.27
2023-04-20T19:00:40.377Z,43.37
2023-04-20T19:03:08.533Z,39.70
2023-04-20T19:05:37.680Z,38.57
2023-04-20T19:08:07.913Z,34.67
2023-04-20T19:10:35.918Z,41.03
2023-04-20T19:13:03.992Z,49.63
2023-04-20T19:15:32.044Z,125.23
2023-04-20T19:18:00.014Z,116.13
2023-04-20T19:20:28.088Z,83.60
2023-04-20T19:22:56.084Z,57.90
2023-04-20T19:25:26.237Z,50.90
2023-04-20T19:27:54.250Z,70.37
2023-04-20T19:30:22.416Z,79.30
2023-04-20T19:32:50.587Z,78.90
2023-04-20T19:35:18.583Z,85.00
2023-04-20T19:37:46.560Z,48.30
2023-04-20T19:40:14.681Z,35.73
2023-04-20T19:42:43.953Z,45.70
2023-04-20T19:45:12.591Z,52.03
2023-04-20T19:47:40.726Z,53.53
2023-04-20T19:50:09.134Z,67.10
2023-04-20T19:52:37.142Z,28.90
2023-04-20T19:55:06.426Z,49.30
2023-04-20T19:57:34.322Z,37.80
2023-04-20T20:00:04.300Z,44.90
2023-04-20T20:02:32.349Z,50.20
2023-04-20T20:05:00.494Z,43.53
2023-04-20T20:07:28.834Z,34.57
2023-04-20T20:09:56.791Z,42.23
2023-04-20T20:12:24.822Z,28.17
2023-04-20T20:14:52.753Z,26.10
2023-04-20T20:17:22.112Z,26.10
2023-04-20T20:19:50.123Z,27.33
2023-04-20T20:22:18.310Z,28.73
2023-04-20T20:24:47.272Z,22.70
2023-04-20T20:27:15.337Z,28.17
2023-04-20T20:29:44.388Z,31.00
2023-04-20T20:32:12.445Z,24.67
2023-04-20T20:34:41.781Z,26.53
2023-04-20T20:37:11.474Z,23.37
2023-04-20T20:39:39.675Z,31.10
2023-04-20T20:42:09.211Z,29.17
2023-04-20T20:44:39.701Z,23.67
2023-04-20T20:47:07.661Z,28.93
2023-04-20T20:49:35.636Z,34.03
2023-04-20T20:52:07.137Z,28.27
2023-04-20T20:54:35.254Z,31.00
2023-04-20T20:57:03.462Z,28.30
2023-04-20T20:59:31.441Z,30.80
2023-04-20T21:01:59.468Z,27.60
2023-04-20T21:04:28.125Z,27.33
2023-04-20T21:06:56.187Z,29.80
2023-04-20T21:09:25.640Z,27.70
2023-04-20T21:11:53.601Z,31.17
2023-04-20T21:14:21.596Z,30.40
2023-04-20T21:16:49.614Z,27.40
2023-04-20T21:19:17.873Z,29.73
2023-04-20T21:21:45.982Z,30.53
2023-04-20T21:24:14.876Z,27.40
2023-04-20T21:26:44.768Z,32.83
2023-04-20T21:29:13.018Z,31.00
2023-04-20T21:31:41.545Z,27.03
2023-04-20T21:34:09.677Z,29.60
2023-04-20T21:36:38.003Z,29.03
2023-04-20T21:39:06.258Z,29.53
2023-04-20T21:41:34.214Z,31.07
2023-04-20T21:44:03.574Z,32.10
2023-04-20T21:46:31.647Z,32.80
2023-04-20T21:48:59.584Z,37.23
2023-04-20T21:51:27.686Z,26.33
2023-04-20T21:53:55.673Z,31.00
2023-04-20T21:56:23.603Z,30.57
2023-04-20T21:58:51.551Z,31.87
2023-04-20T22:01:20.994Z,31.53
2023-04-20T22:03:49.136Z,32.00
2023-04-20T22:06:17.241Z,32.40
2023-04-20T22:08:45.511Z,27.53
2023-04-20T22:11:13.912Z,30.33
2023-04-20T22:13:41.879Z,30.63
2023-04-20T22:16:09.937Z,30.40
2023-04-20T22:18:39.257Z,34.60
2023-04-20T22:21:07.259Z,35.80
2023-04-20T22:23:35.571Z,30.10
2023-04-20T22:26:03.546Z,33.23
2023-04-20T22:28:31.730Z,34.10
2023-04-20T22:30:59.779Z,31.63
2023-04-20T22:33:27.815Z,30.47
2023-04-20T22:35:57.097Z,32.00
2023-04-20T22:38:25.108Z,33.33
2023-04-20T22:40:53.627Z,31.43
2023-04-20T22:43:22.368Z,31.77
2023-04-20T22:45:50.364Z,33.63
2023-04-20T22:48:18.354Z,30.67
2023-04-20T22:50:46.689Z,32.30
2023-04-20T22:53:16.058Z,30.23
2023-04-20T22:55:44.034Z,32.50
2023-04-20T22:58:11.982Z,29.47
2023-04-20T23:00:41.437Z,32.63
2023-04-20T23:03:09.574Z,36.30
2023-04-20T23:05:39.006Z,41.67
2023-04-20T23:08:06.999Z,33.97
2023-04-20T23:10:36.409Z,34.63
2023-04-20T23:13:04.941Z,36.50
2023-04-20T23:15:33.195Z,35.57
2023-04-20T23:18:01.444Z,33.33
2023-04-20T23:20:29.597Z,37.83
2023-04-20T23:22:57.516Z,38.30
2023-04-20T23:25:25.465Z,34.90
2023-04-20T23:27:54.864Z,31.10
2023-04-20T23:30:22.931Z,38.70
2023-04-20T23:32:50.903Z,39.33
2023-04-20T23:35:19.456Z,37.63
2023-04-20T23:37:47.382Z,40.47
2023-04-20T23:40:15.377Z,35.47
2023-04-20T23:42:43.317Z,36.20
2023-04-20T23:45:13.418Z,31.93
2023-04-20T23:47:41.425Z,35.13
2023-04-20T23:50:10.466Z,33.63
2023-04-20T23:52:38.505Z,32.20
2023-04-20T23:55:07.174Z,36.30
2023-04-20T23:57:35.280Z,30.00
